Time;durP1;ratioP1;P1;durP2;ratioP2;P2;SDS_P1;SDS_P2;PMS_P1;PMS_P2;Temp;Humidity;BMP_temperature;BMP_pressure;BME280_temperature;BME280_humidity;BME280_pressure;Samples;Min_cycle;Max_cycle;Signal;HPM_P1;HPM_P2
2021/01/27 00:01:33;;;;;;;;;;;2.80;99.90;;;;;;4975924;28;20041;-83
2021/01/27 00:03:58;;;;;;;;;;;2.70;99.90;;;;;;4975193;28;19914;-83
2021/01/27 00:06:24;;;;;;;;;;;2.70;99.90;;;;;;4992785;28;19922;-83
2021/01/27 00:08:49;;;;;;;;;;;2.70;99.90;;;;;;4975380;28;19914;-83
2021/01/27 00:11:15;;;;;;;;;;;2.60;99.90;;;;;;4980820;28;20286;-83
2021/01/27 00:13:40;;;;;;;;;;;2.60;99.90;;;;;;4993508;28;20012;-83
2021/01/27 00:16:06;;;;;;;;;;;2.60;99.90;;;;;;4980103;28;20271;-83
2021/01/27 00:18:31;;;;;;;;;;;2.60;99.90;;;;;;5001778;28;19925;-84
2021/01/27 00:20:57;;;;;;;;;;;2.60;99.90;;;;;;4996694;28;20371;-83
2021/01/27 00:23:22;;;;;;;;;;;2.60;99.90;;;;;;4976636;28;19921;-83
2021/01/27 00:25:48;;;;;;;;;;;2.60;99.90;;;;;;4994619;28;19979;-83
2021/01/27 00:28:13;;;;;;;;;;;2.60;99.90;;;;;;4985548;28;19909;-83
2021/01/27 00:30:42;;;;;;;;;;;2.60;99.90;;;;;;4976384;28;19918;-83
2021/01/27 00:33:11;;;;;;;;;;;2.50;99.90;;;;;;4974683;28;20008;-83
2021/01/27 00:35:41;;;;;;;;;;;2.60;99.90;;;;;;4974858;28;19910;-83
2021/01/27 00:38:18;;;;;;;;;;;2.50;99.90;;;;;;4977406;28;19996;-83
2021/01/27 00:40:43;;;;;;;;;;;2.50;99.90;;;;;;4968943;28;20009;-83
2021/01/27 00:43:09;;;;;;;;;;;2.50;99.90;;;;;;4976203;28;19976;-83
2021/01/27 00:45:35;;;;;;;;;;;2.50;99.90;;;;;;4974857;28;20016;-83
2021/01/27 00:48:00;;;;;;;;;;;2.50;99.90;;;;;;4975128;28;19910;-83
2021/01/27 00:50:26;;;;;;;;;;;2.50;99.90;;;;;;4974603;28;20397;-83
2021/01/27 00:52:52;;;;;;;;;;;2.60;99.90;;;;;;5008335;28;19913;-83
2021/01/27 00:55:19;;;;;;;;;;;2.60;99.90;;;;;;4973549;28;20438;-83
2021/01/27 00:57:45;;;;;;;;;;;2.60;99.90;;;;;;4973212;28;19956;-83
2021/01/27 01:00:14;;;;;;;;;;;2.50;99.90;;;;;;4972180;28;19941;-83
2021/01/27 01:02:39;;;;;;;;;;;2.50;99.90;;;;;;4999593;28;19929;-83
2021/01/27 01:05:06;;;;;;;;;;;2.50;99.90;;;;;;4993557;28;19918;-84
2021/01/27 01:07:32;;;;;;;;;;;2.60;99.90;;;;;;4987456;28;19909;-83
2021/01/27 01:09:57;;;;;;;;;;;2.50;99.90;;;;;;4974659;28;19980;-83
2021/01/27 01:12:23;;;;;;;;;;;2.60;99.90;;;;;;4972691;28;19921;-83
2021/01/27 01:14:48;;;;;;;;;;;2.60;99.90;;;;;;4977043;28;19924;-83
2021/01/27 01:17:14;;;;;;;;;;;2.60;99.90;;;;;;4973739;28;19917;-83
2021/01/27 01:19:40;;;;;;;;;;;2.50;99.90;;;;;;4974196;28;19910;-83
2021/01/27 01:22:05;;;;;;;;;;;2.60;99.90;;;;;;4976472;28;20013;-83
2021/01/27 01:24:31;;;;;;;;;;;2.50;99.90;;;;;;4972671;28;20009;-83
2021/01/27 01:26:56;;;;;;;;;;;2.60;99.90;;;;;;4990292;28;20363;-83
2021/01/27 01:29:22;;;;;;;;;;;2.50;99.90;;;;;;4972156;28;19910;-83
2021/01/27 01:31:47;;;;;;;;;;;2.60;99.90;;;;;;4972868;28;19914;-83
2021/01/27 01:34:13;;;;;;;;;;;2.60;99.90;;;;;;4973416;28;20359;-83
2021/01/27 01:36:38;;;;;;;;;;;2.60;99.90;;;;;;4976368;28;20406;-83
2021/01/27 01:39:04;;;;;;;;;;;2.70;99.90;;;;;;4982065;28;19965;-83
2021/01/27 01:41:29;;;;;;;;;;;2.60;99.90;;;;;;4987724;28;19932;-83
2021/01/27 01:43:55;;;;;;;;;;;2.70;99.90;;;;;;4966818;28;19914;-83
2021/01/27 01:46:21;;;;;;;;;;;2.60;99.90;;;;;;4995908;28;19922;-83
2021/01/27 01:48:48;;;;;;;;;;;2.70;99.90;;;;;;4991195;28;19910;-83
2021/01/27 01:51:32;;;;;;;;;;;2.70;99.90;;;;;;4981048;28;20412;-82
2021/01/27 01:54:17;;;;;;;;;;;2.70;99.90;;;;;;5001921;28;20374;-83
2021/01/27 01:56:52;;;;;;;;;;;2.70;99.90;;;;;;4971675;28;20356;-83
2021/01/27 01:59:18;;;;;;;;;;;2.70;99.90;;;;;;4970904;28;19914;-83
2021/01/27 02:01:46;;;;;;;;;;;2.70;99.90;;;;;;4972892;28;19928;-83
2021/01/27 02:04:11;;;;;;;;;;;2.70;99.90;;;;;;4972783;28;19921;-83
2021/01/27 02:06:37;;;;;;;;;;;2.70;99.90;;;;;;4975650;28;20291;-83
2021/01/27 02:09:03;;;;;;;;;;;2.70;99.90;;;;;;4982362;28;19924;-83
2021/01/27 02:11:45;;;;;;;;;;;2.80;99.90;;;;;;4970511;28;19926;-83
2021/01/27 02:14:26;;;;;;;;;;;2.70;99.90;;;;;;4971836;28;20291;-83
2021/01/27 02:17:00;;;;;;;;;;;2.80;99.90;;;;;;4972227;28;19969;-83
2021/01/27 02:19:32;;;;;;;;;;;2.80;99.90;;;;;;4973791;28;19932;-83
2021/01/27 02:22:11;;;;;;;;;;;2.70;99.90;;;;;;4982820;28;19909;-83
2021/01/27 02:24:57;;;;;;;;;;;2.70;99.90;;;;;;4977922;28;19926;-83
2021/01/27 02:27:28;;;;;;;;;;;2.80;99.90;;;;;;4912870;29;19922;-83
2021/01/27 02:30:03;;;;;;;;;;;2.80;99.90;;;;;;4914388;29;19921;-83
2021/01/27 02:32:28;;;;;;;;;;;2.80;99.90;;;;;;4948346;29;19925;-83
2021/01/27 02:34:57;;;;;;;;;;;2.80;99.90;;;;;;4930947;29;19914;-84
2021/01/27 02:37:36;;;;;;;;;;;2.80;99.90;;;;;;4915007;29;19922;-83
2021/01/27 02:40:13;;;;;;;;;;;2.80;99.90;;;;;;4919709;29;19915;-83
2021/01/27 02:42:41;;;;;;;;;;;2.80;99.90;;;;;;4912250;29;19919;-83
2021/01/27 02:45:10;;;;;;;;;;;2.80;99.90;;;;;;4910554;29;20095;-83
2021/01/27 02:47:51;;;;;;;;;;;2.90;99.90;;;;;;4911317;29;19915;-83
2021/01/27 02:50:20;;;;;;;;;;;3.00;99.90;;;;;;4914650;29;19956;-83
2021/01/27 02:52:48;;;;;;;;;;;3.00;99.90;;;;;;4929806;29;19911;-83
2021/01/27 02:55:17;;;;;;;;;;;3.00;99.90;;;;;;4913718;29;20372;-83
2021/01/27 02:57:58;;;;;;;;;;;3.00;99.90;;;;;;4910367;29;19923;-83
2021/01/27 03:00:26;;;;;;;;;;;3.00;99.90;;;;;;4912018;28;19950;-83
2021/01/27 03:02:54;;;;;;;;;;;3.00;99.90;;;;;;4920022;29;19929;-83
2021/01/27 03:05:27;;;;;;;;;;;3.10;99.90;;;;;;4964587;28;20294;-83
2021/01/27 03:07:56;;;;;;;;;;;3.10;99.90;;;;;;4971818;28;19917;-83
2021/01/27 03:10:23;;;;;;;;;;;3.10;99.90;;;;;;4977144;28;20008;-83
2021/01/27 03:12:50;;;;;;;;;;;3.10;99.90;;;;;;4971666;28;19929;-83
2021/01/27 03:15:16;;;;;;;;;;;3.00;99.90;;;;;;4972418;28;19913;-83
2021/01/27 03:17:42;;;;;;;;;;;3.00;99.90;;;;;;4985118;28;19910;-82
2021/01/27 03:20:23;;;;;;;;;;;3.00;99.90;;;;;;4979118;28;20268;-83
2021/01/27 03:22:55;;;;;;;;;;;3.00;99.90;;;;;;4992128;28;20000;-83
2021/01/27 03:25:44;;;;;;;;;;;3.00;99.90;;;;;;4970170;28;19933;-83
2021/01/27 03:28:13;;;;;;;;;;;2.90;99.90;;;;;;4956178;28;19914;-83
2021/01/27 03:30:38;;;;;;;;;;;2.90;99.90;;;;;;4973276;28;20430;-83
2021/01/27 03:33:17;;;;;;;;;;;2.90;99.90;;;;;;4976037;28;19972;-83
2021/01/27 03:35:48;;;;;;;;;;;2.90;99.90;;;;;;4976502;28;20290;-83
2021/01/27 03:38:30;;;;;;;;;;;3.00;99.90;;;;;;4977602;28;19917;-83
2021/01/27 03:40:58;;;;;;;;;;;3.00;99.90;;;;;;4975093;28;19925;-83
2021/01/27 03:43:38;;;;;;;;;;;3.00;99.90;;;;;;4975196;28;19914;-83
2021/01/27 03:46:17;;;;;;;;;;;3.00;99.90;;;;;;4971211;28;19938;-83
2021/01/27 03:48:45;;;;;;;;;;;3.00;99.90;;;;;;4975468;28;19961;-83
2021/01/27 03:51:12;;;;;;;;;;;2.90;99.90;;;;;;4975540;28;19964;-83
2021/01/27 03:53:38;;;;;;;;;;;2.90;99.90;;;;;;4978885;28;19916;-83
2021/01/27 03:56:11;;;;;;;;;;;2.90;99.90;;;;;;4975028;28;19914;-83
2021/01/27 03:58:38;;;;;;;;;;;2.90;99.90;;;;;;4991539;28;19976;-83
2021/01/27 04:01:11;;;;;;;;;;;2.90;99.90;;;;;;4977658;28;19929;-83
2021/01/27 04:03:37;;;;;;;;;;;2.90;99.90;;;;;;4988809;28;19898;-83
2021/01/27 04:06:03;;;;;;;;;;;2.90;99.90;;;;;;4978233;28;19917;-83
2021/01/27 04:08:28;;;;;;;;;;;3.00;99.90;;;;;;4974661;28;20299;-83
2021/01/27 04:10:54;;;;;;;;;;;2.90;99.90;;;;;;4974216;28;19918;-83
2021/01/27 04:13:20;;;;;;;;;;;3.00;99.90;;;;;;4990606;28;20332;-83
2021/01/27 04:15:45;;;;;;;;;;;3.00;99.90;;;;;;4972536;28;19914;-83
2021/01/27 04:18:10;;;;;;;;;;;3.00;99.90;;;;;;4992551;28;20385;-83
2021/01/27 04:20:36;;;;;;;;;;;3.00;99.90;;;;;;4975591;28;20026;-83
2021/01/27 04:23:02;;;;;;;;;;;3.00;99.90;;;;;;4991308;28;19910;-83
2021/01/27 04:25:28;;;;;;;;;;;3.00;99.90;;;;;;4979508;28;19921;-83
2021/01/27 04:27:53;;;;;;;;;;;3.00;99.90;;;;;;4973450;28;19950;-83
2021/01/27 04:30:24;;;;;;;;;;;3.00;99.90;;;;;;4975141;28;19921;-83
2021/01/27 04:32:49;;;;;;;;;;;3.00;99.90;;;;;;4974873;28;19914;-83
2021/01/27 04:35:16;;;;;;;;;;;3.00;99.90;;;;;;4975726;28;19910;-83
2021/01/27 04:37:41;;;;;;;;;;;2.90;99.90;;;;;;4984521;28;19917;-83
2021/01/27 04:40:36;;;;;;;;;;;2.90;99.90;;;;;;4997938;28;19933;-83
2021/01/27 04:43:07;;;;;;;;;;;2.90;99.90;;;;;;4930085;29;20013;-82
2021/01/27 04:45:32;;;;;;;;;;;2.90;99.90;;;;;;4942464;29;19919;-82
2021/01/27 04:48:04;;;;;;;;;;;2.90;99.90;;;;;;4943011;29;19915;-83
2021/01/27 04:50:32;;;;;;;;;;;2.90;99.90;;;;;;4915382;29;19947;-82
2021/01/27 04:53:17;;;;;;;;;;;2.90;99.90;;;;;;4941091;29;19943;-82
2021/01/27 04:55:43;;;;;;;;;;;2.90;99.90;;;;;;4907130;29;19915;-83
2021/01/27 04:58:19;;;;;;;;;;;2.90;99.90;;;;;;4889849;29;19975;-83
2021/01/27 05:00:51;;;;;;;;;;;2.90;99.90;;;;;;4888850;29;19962;-83
2021/01/27 05:03:19;;;;;;;;;;;2.90;99.90;;;;;;4876947;29;20005;-82
2021/01/27 05:05:48;;;;;;;;;;;2.90;99.90;;;;;;4886100;29;20494;-82
2021/01/27 05:08:25;;;;;;;;;;;2.90;99.90;;;;;;4910768;29;19926;-82
2021/01/27 05:10:53;;;;;;;;;;;2.90;99.90;;;;;;4894566;29;19927;-82
2021/01/27 05:13:33;;;;;;;;;;;2.90;99.90;;;;;;4894425;29;19927;-82
2021/01/27 05:16:06;;;;;;;;;;;2.90;99.90;;;;;;4889425;29;20023;-82
2021/01/27 05:18:31;;;;;;;;;;;2.90;99.90;;;;;;4892906;29;20470;-82
2021/01/27 05:20:58;;;;;;;;;;;2.90;99.90;;;;;;4897231;29;19997;-82
2021/01/27 05:23:24;;;;;;;;;;;3.00;99.90;;;;;;4897289;29;20345;-82
2021/01/27 05:25:59;;;;;;;;;;;2.90;99.90;;;;;;4908412;28;19970;-82
2021/01/27 05:28:28;;;;;;;;;;;2.90;99.90;;;;;;4914010;29;19914;-82
2021/01/27 05:30:54;;;;;;;;;;;2.90;99.90;;;;;;4895135;29;19919;-82
2021/01/27 05:33:40;;;;;;;;;;;2.90;99.90;;;;;;4965416;28;19953;-83
2021/01/27 05:36:06;;;;;;;;;;;2.80;99.90;;;;;;4986775;28;20273;-82
2021/01/27 05:38:31;;;;;;;;;;;2.90;99.90;;;;;;4980037;28;19910;-82
2021/01/27 05:41:04;;;;;;;;;;;2.90;99.90;;;;;;4996200;28;19933;-82
2021/01/27 05:43:32;;;;;;;;;;;2.90;99.90;;;;;;4982835;28;19914;-81
2021/01/27 05:46:10;;;;;;;;;;;3.00;99.90;;;;;;4992518;28;19929;-82
2021/01/27 05:48:46;;;;;;;;;;;3.00;99.90;;;;;;4985728;28;19953;-82
2021/01/27 05:51:17;;;;;;;;;;;2.90;99.90;;;;;;4978126;28;19922;-84
2021/01/27 05:53:42;;;;;;;;;;;2.90;99.90;;;;;;4982421;28;19932;-82
2021/01/27 05:56:15;;;;;;;;;;;3.00;99.90;;;;;;4979587;28;20286;-82
2021/01/27 05:58:44;;;;;;;;;;;2.90;99.90;;;;;;4978698;28;19914;-82
2021/01/27 06:01:13;;;;;;;;;;;2.90;99.90;;;;;;4976545;28;19921;-83
2021/01/27 06:03:38;;;;;;;;;;;2.90;99.90;;;;;;4980059;28;19913;-82
2021/01/27 06:06:11;;;;;;;;;;;2.90;99.90;;;;;;4993720;28;20298;-82
2021/01/27 06:08:46;;;;;;;;;;;2.90;99.90;;;;;;4996748;28;19952;-82
2021/01/27 06:11:12;;;;;;;;;;;2.90;99.90;;;;;;4989817;28;19980;-83
2021/01/27 06:13:38;;;;;;;;;;;2.90;99.90;;;;;;5012285;28;19938;-82
2021/01/27 06:16:15;;;;;;;;;;;2.80;99.90;;;;;;4995082;28;19913;-82
2021/01/27 06:18:41;;;;;;;;;;;2.90;99.90;;;;;;5000753;28;19917;-82
2021/01/27 06:21:25;;;;;;;;;;;2.90;99.90;;;;;;5001450;28;20351;-82
2021/01/27 06:23:57;;;;;;;;;;;2.80;99.90;;;;;;4996528;28;19913;-82
2021/01/27 06:26:42;;;;;;;;;;;2.80;99.90;;;;;;4993498;28;19921;-81
2021/01/27 06:29:09;;;;;;;;;;;2.80;99.90;;;;;;4992119;28;19922;-82
2021/01/27 06:31:52;;;;;;;;;;;2.80;99.90;;;;;;4994783;28;20599;-83
2021/01/27 06:34:26;;;;;;;;;;;2.70;99.90;;;;;;4996052;28;19913;-83
2021/01/27 06:37:07;;;;;;;;;;;2.70;99.90;;;;;;4977333;28;19983;-81
2021/01/27 06:39:51;;;;;;;;;;;2.70;99.90;;;;;;4997790;28;20016;-82
2021/01/27 06:42:20;;;;;;;;;;;2.60;99.90;;;;;;4985643;28;19924;-82
2021/01/27 06:45:04;;;;;;;;;;;2.60;99.90;;;;;;4977082;28;19956;-82
2021/01/27 06:47:37;;;;;;;;;;;2.60;99.90;;;;;;4976712;28;20005;-82
2021/01/27 06:50:19;;;;;;;;;;;2.60;99.90;;;;;;4976638;28;20335;-82
2021/01/27 06:53:05;;;;;;;;;;;2.60;99.90;;;;;;4969312;28;19914;-83
2021/01/27 06:55:49;;;;;;;;;;;2.50;99.90;;;;;;4979240;28;20318;-83
2021/01/27 06:58:15;;;;;;;;;;;2.50;99.90;;;;;;4930119;29;19915;-83
2021/01/27 07:00:40;;;;;;;;;;;2.50;99.90;;;;;;4917370;29;19926;-82
2021/01/27 07:03:18;;;;;;;;;;;2.40;99.90;;;;;;4914532;29;19926;-82
2021/01/27 07:05:58;;;;;;;;;;;2.50;99.90;;;;;;4917673;29;20281;-83
2021/01/27 07:08:31;;;;;;;;;;;2.40;99.90;;;;;;4909313;29;19923;-82
2021/01/27 07:11:07;;;;;;;;;;;2.50;99.90;;;;;;4895812;29;20009;-83
2021/01/27 07:13:32;;;;;;;;;;;2.40;99.90;;;;;;4906947;29;19955;-83
2021/01/27 07:16:04;;;;;;;;;;;2.40;99.90;;;;;;4888497;29;19962;-83
2021/01/27 07:18:42;;;;;;;;;;;2.40;99.90;;;;;;4906406;29;19923;-83
2021/01/27 07:21:29;;;;;;;;;;;2.40;99.90;;;;;;4908453;29;19919;-83
2021/01/27 07:24:00;;;;;;;;;;;2.40;99.90;;;;;;4823160;29;20036;-83
2021/01/27 07:26:43;;;;;;;;;;;2.40;99.90;;;;;;4834899;29;19967;-83
2021/01/27 07:29:12;;;;;;;;;;;2.40;99.90;;;;;;4857817;29;19923;-83
2021/01/27 07:31:37;;;;;;;;;;;2.40;99.90;;;;;;4891513;29;19919;-82
2021/01/27 07:34:21;;;;;;;;;;;2.30;99.90;;;;;;4906055;29;20380;-83
2021/01/27 07:36:51;;;;;;;;;;;2.30;99.90;;;;;;4902269;29;20242;-83
2021/01/27 07:39:36;;;;;;;;;;;2.30;99.90;;;;;;4919478;29;19935;-82
2021/01/27 07:42:07;;;;;;;;;;;2.30;99.90;;;;;;4894444;29;20387;-83
2021/01/27 07:44:33;;;;;;;;;;;2.30;99.90;;;;;;4888311;29;19987;-83
2021/01/27 07:47:01;;;;;;;;;;;2.30;99.90;;;;;;4896306;29;20014;-83
2021/01/27 07:49:50;;;;;;;;;;;2.30;99.90;;;;;;4898253;29;20392;-83
2021/01/27 07:52:18;;;;;;;;;;;2.20;99.90;;;;;;4891932;29;19923;-83
2021/01/27 07:54:48;;;;;;;;;;;2.30;99.90;;;;;;4892917;29;19995;-83
2021/01/27 07:57:36;;;;;;;;;;;2.30;99.90;;;;;;4878755;29;19919;-83
2021/01/27 08:00:20;;;;;;;;;;;2.30;99.90;;;;;;4891666;29;19924;-83
2021/01/27 08:02:56;;;;;;;;;;;2.30;99.90;;;;;;4948537;28;19930;-82
2021/01/27 08:05:23;;;;;;;;;;;2.30;99.90;;;;;;4946152;28;19922;-82
2021/01/27 08:07:59;;;;;;;;;;;2.30;99.90;;;;;;4930588;29;19918;-82
2021/01/27 08:10:26;;;;;;;;;;;2.20;99.90;;;;;;4944661;28;19961;-83
2021/01/27 08:12:53;;;;;;;;;;;2.30;99.90;;;;;;4946206;28;20001;-82
2021/01/27 08:15:25;;;;;;;;;;;2.40;99.90;;;;;;4929817;28;20375;-83
2021/01/27 08:18:13;;;;;;;;;;;2.40;99.90;;;;;;4924384;29;20316;-83
2021/01/27 08:20:41;;;;;;;;;;;2.50;99.90;;;;;;4893364;29;19920;-83
2021/01/27 08:23:29;;;;;;;;;;;2.50;99.90;;;;;;4877125;29;19915;-82
2021/01/27 08:26:02;;;;;;;;;;;2.60;99.90;;;;;;4876888;29;20392;-82
2021/01/27 08:28:36;;;;;;;;;;;2.60;99.90;;;;;;4888199;29;20014;-83
2021/01/27 08:31:12;;;;;;;;;;;2.70;99.90;;;;;;4886320;29;19916;-82
2021/01/27 08:33:46;;;;;;;;;;;2.60;99.90;;;;;;4891526;29;19924;-82
2021/01/27 08:36:19;;;;;;;;;;;2.80;99.90;;;;;;4887980;29;19970;-83
2021/01/27 08:38:46;;;;;;;;;;;2.90;99.90;;;;;;4876848;29;20088;-82
2021/01/27 08:41:31;;;;;;;;;;;2.90;99.90;;;;;;4889442;29;19923;-83
2021/01/27 08:43:57;;;;;;;;;;;2.90;99.90;;;;;;4873371;29;19949;-82
2021/01/27 08:46:26;;;;;;;;;;;2.90;99.90;;;;;;4886498;29;19963;-83
2021/01/27 08:48:52;;;;;;;;;;;2.90;99.90;;;;;;4890260;29;20365;-83
2021/01/27 08:51:36;;;;;;;;;;;2.90;99.90;;;;;;4893842;29;19923;-83
2021/01/27 08:54:19;;;;;;;;;;;2.90;99.90;;;;;;4909860;29;19915;-83
2021/01/27 08:57:04;;;;;;;;;;;2.90;99.90;;;;;;4913228;28;19930;-83
2021/01/27 08:59:29;;;;;;;;;;;3.00;99.90;;;;;;4965232;28;19922;-82
2021/01/27 09:01:55;;;;;;;;;;;3.00;99.90;;;;;;4968083;28;19940;-82
2021/01/27 09:04:36;;;;;;;;;;;2.90;99.90;;;;;;4974687;28;19914;-84
2021/01/27 09:07:06;;;;;;;;;;;2.90;99.90;;;;;;4967561;28;20160;-81
2021/01/27 09:09:38;;;;;;;;;;;2.90;99.90;;;;;;4945413;28;19990;-83
2021/01/27 09:12:06;;;;;;;;;;;2.90;99.90;;;;;;4926619;29;19928;-82
2021/01/27 09:14:33;;;;;;;;;;;2.90;99.90;;;;;;4944158;28;21280;-83
2021/01/27 09:16:59;;;;;;;;;;;2.90;99.90;;;;;;4936452;28;19945;-81
2021/01/27 09:19:28;;;;;;;;;;;2.80;99.90;;;;;;4933907;29;19948;-83
2021/01/27 09:22:18;;;;;;;;;;;2.80;99.90;;;;;;4946521;28;20267;-82
2021/01/27 09:24:44;;;;;;;;;;;2.80;99.90;;;;;;4922523;29;20404;-83
2021/01/27 09:27:18;;;;;;;;;;;3.00;99.90;;;;;;4941548;28;19973;-83
2021/01/27 09:29:44;;;;;;;;;;;3.00;99.90;;;;;;4928434;28;21582;-83
2021/01/27 09:32:12;;;;;;;;;;;3.10;99.90;;;;;;4928893;28;19922;-83
2021/01/27 09:34:37;;;;;;;;;;;3.10;99.90;;;;;;4928883;29;20008;-83
2021/01/27 09:37:08;;;;;;;;;;;3.10;99.90;;;;;;4946140;28;20062;-82
2021/01/27 09:39:39;;;;;;;;;;;3.20;99.90;;;;;;4928519;28;20012;-82
2021/01/27 09:42:19;;;;;;;;;;;3.40;99.90;;;;;;4922333;28;19929;-83
2021/01/27 09:44:47;;;;;;;;;;;3.40;99.90;;;;;;4959739;28;19974;-84
2021/01/27 09:47:16;;;;;;;;;;;3.40;99.90;;;;;;4970556;28;20017;-83
2021/01/27 09:49:54;;;;;;;;;;;3.50;99.90;;;;;;4988614;28;20179;-84
2021/01/27 09:52:22;;;;;;;;;;;3.50;99.90;;;;;;4955441;28;19933;-83
2021/01/27 09:54:49;;;;;;;;;;;3.50;99.90;;;;;;4979447;28;19922;-82
2021/01/27 09:57:16;;;;;;;;;;;3.60;99.90;;;;;;4978818;28;19988;-83
2021/01/27 09:59:52;;;;;;;;;;;3.70;99.90;;;;;;4972352;28;19922;-83
2021/01/27 10:02:26;;;;;;;;;;;3.60;99.90;;;;;;4976460;28;19930;-83
2021/01/27 10:04:52;;;;;;;;;;;3.70;99.90;;;;;;4954973;28;19922;-83
2021/01/27 10:07:20;;;;;;;;;;;3.80;99.90;;;;;;4958823;28;20053;-83
2021/01/27 10:09:51;;;;;;;;;;;3.80;99.90;;;;;;4978328;28;20439;-81
2021/01/27 10:12:19;;;;;;;;;;;3.70;99.90;;;;;;4970995;28;19941;-82
2021/01/27 10:14:46;;;;;;;;;;;3.60;99.90;;;;;;4951504;28;19918;-82
2021/01/27 10:17:12;;;;;;;;;;;3.60;99.90;;;;;;4958827;28;20335;-82
2021/01/27 10:19:52;;;;;;;;;;;3.50;99.90;;;;;;4947670;28;19922;-84
2021/01/27 10:22:27;;;;;;;;;;;3.30;99.90;;;;;;4962772;28;19922;-82
2021/01/27 10:24:55;;;;;;;;;;;3.20;99.90;;;;;;4962263;28;20335;-83
2021/01/27 10:27:31;;;;;;;;;;;3.20;99.90;;;;;;4967352;28;19967;-84
2021/01/27 10:29:57;;;;;;;;;;;3.00;99.90;;;;;;4969343;28;19928;-83
2021/01/27 10:32:47;;;;;;;;;;;2.90;99.90;;;;;;4972870;28;19914;-83
2021/01/27 10:35:25;;;;;;;;;;;2.90;99.90;;;;;;4984813;28;19922;-83
2021/01/27 10:38:23;;;;;;;;;;;2.80;99.90;;;;;;4973130;28;19913;-83
2021/01/27 10:41:17;;;;;;;;;;;2.70;99.90;;;;;;4867726;29;19982;-83
2021/01/27 10:43:43;;;;;;;;;;;2.70;99.90;;;;;;4870576;29;19928;-82
2021/01/27 10:46:27;;;;;;;;;;;2.70;99.90;;;;;;4872710;29;19932;-83
2021/01/27 10:48:53;;;;;;;;;;;2.60;99.90;;;;;;4869071;29;20023;-83
2021/01/27 10:51:21;;;;;;;;;;;2.60;99.90;;;;;;4855129;29;19923;-83
2021/01/27 10:53:46;;;;;;;;;;;2.60;99.90;;;;;;4856177;29;19928;-82
2021/01/27 10:56:14;;;;;;;;;;;2.50;99.90;;;;;;4871806;29;19931;-83
2021/01/27 10:58:39;;;;;;;;;;;2.60;99.90;;;;;;4848962;29;20378;-82
2021/01/27 11:01:05;;;;;;;;;;;2.70;99.90;;;;;;4850611;29;19932;-82
2021/01/27 11:03:30;;;;;;;;;;;2.80;99.90;;;;;;4816314;29;19939;-83
2021/01/27 11:05:56;;;;;;;;;;;2.70;99.90;;;;;;4820315;29;19944;-83
2021/01/27 11:08:23;;;;;;;;;;;2.70;99.90;;;;;;4815326;29;20162;-83
2021/01/27 11:10:49;;;;;;;;;;;2.80;99.90;;;;;;4821629;29;21380;-82
2021/01/27 11:13:14;;;;;;;;;;;2.80;99.90;;;;;;4816176;29;20263;-83
2021/01/27 11:15:40;;;;;;;;;;;2.80;99.90;;;;;;4805980;29;19968;-82
2021/01/27 11:18:05;;;;;;;;;;;2.80;99.90;;;;;;4853921;29;20393;-83
2021/01/27 11:20:31;;;;;;;;;;;2.80;99.90;;;;;;4867683;29;19960;-83
2021/01/27 11:22:58;;;;;;;;;;;2.80;99.90;;;;;;4876260;29;19919;-84
2021/01/27 11:25:24;;;;;;;;;;;2.90;99.90;;;;;;4876175;29;20408;-83
2021/01/27 11:27:50;;;;;;;;;;;2.80;99.90;;;;;;4892527;29;20027;-83
2021/01/27 11:30:17;;;;;;;;;;;2.80;99.90;;;;;;4906488;29;20083;-83
2021/01/27 11:32:43;;;;;;;;;;;2.90;99.90;;;;;;4911462;29;19962;-83
2021/01/27 11:35:09;;;;;;;;;;;2.80;99.90;;;;;;4940077;28;19930;-82
2021/01/27 11:37:35;;;;;;;;;;;2.80;99.90;;;;;;4945185;28;19986;-82
2021/01/27 11:40:01;;;;;;;;;;;2.90;99.90;;;;;;4969098;28;20401;-82
2021/01/27 11:42:28;;;;;;;;;;;2.80;99.90;;;;;;4959652;28;20066;-81
2021/01/27 11:44:54;;;;;;;;;;;2.90;99.90;;;;;;4956158;28;19918;-82
2021/01/27 11:47:20;;;;;;;;;;;2.80;99.90;;;;;;4949018;28;19918;-82
2021/01/27 11:49:46;;;;;;;;;;;2.90;99.90;;;;;;4979475;28;19936;-82
2021/01/27 11:52:12;;;;;;;;;;;3.00;99.90;;;;;;4970427;28;19922;-82
2021/01/27 11:54:39;;;;;;;;;;;2.70;99.90;;;;;;4987469;28;19918;-82
2021/01/27 11:57:06;;;;;;;;;;;2.80;99.90;;;;;;4971651;28;19984;-83
2021/01/27 11:59:31;;;;;;;;;;;2.80;99.90;;;;;;4989412;28;20297;-83
2021/01/27 12:01:58;;;;;;;;;;;2.80;99.90;;;;;;4969370;28;19937;-84
2021/01/27 12:04:24;;;;;;;;;;;2.80;99.90;;;;;;4970958;28;19926;-84
2021/01/27 12:06:50;;;;;;;;;;;2.80;99.90;;;;;;4986387;28;19922;-83
2021/01/27 12:09:15;;;;;;;;;;;2.80;99.90;;;;;;4988517;28;19922;-82
2021/01/27 12:11:42;;;;;;;;;;;2.80;99.90;;;;;;4970056;28;19992;-83
2021/01/27 12:14:07;;;;;;;;;;;2.90;99.90;;;;;;4973433;28;20430;-83
2021/01/27 12:16:32;;;;;;;;;;;2.90;99.90;;;;;;4980214;28;19971;-83
2021/01/27 12:18:58;;;;;;;;;;;2.80;99.90;;;;;;4993689;28;20368;-83
2021/01/27 12:21:24;;;;;;;;;;;2.90;99.90;;;;;;4967054;28;19913;-83
2021/01/27 12:23:49;;;;;;;;;;;2.80;99.90;;;;;;4971990;28;19926;-82
2021/01/27 12:26:15;;;;;;;;;;;2.90;99.90;;;;;;4970071;28;19930;-83
2021/01/27 12:28:41;;;;;;;;;;;2.90;99.90;;;;;;4970253;28;19918;-83
2021/01/27 12:31:06;;;;;;;;;;;2.90;99.90;;;;;;4965301;28;19921;-83
2021/01/27 12:33:32;;;;;;;;;;;3.00;99.90;;;;;;4964883;28;19968;-83
2021/01/27 12:35:58;;;;;;;;;;;2.90;99.90;;;;;;4970473;28;19913;-83
2021/01/27 12:38:23;;;;;;;;;;;2.90;99.90;;;;;;4970828;28;19913;-83
2021/01/27 12:40:49;;;;;;;;;;;2.90;99.90;;;;;;4972057;28;19925;-84
2021/01/27 12:43:14;;;;;;;;;;;2.90;99.90;;;;;;4984767;28;19928;-83
2021/01/27 12:45:43;;;;;;;;;;;2.90;99.90;;;;;;4982572;28;19929;-83
2021/01/27 12:48:09;;;;;;;;;;;3.00;99.90;;;;;;4967832;28;20009;-83
2021/01/27 12:50:34;;;;;;;;;;;3.00;99.90;;;;;;4966768;28;20339;-83
2021/01/27 12:53:00;;;;;;;;;;;3.00;99.90;;;;;;4986195;28;19941;-83
2021/01/27 12:55:26;;;;;;;;;;;3.00;99.90;;;;;;4971571;28;20040;-83
2021/01/27 12:57:52;;;;;;;;;;;2.90;99.90;;;;;;4971921;28;19914;-83
2021/01/27 13:00:22;;;;;;;;;;;3.00;99.90;;;;;;4975999;28;19928;-84
2021/01/27 13:02:49;;;;;;;;;;;3.00;99.90;;;;;;4963147;28;19922;-83
2021/01/27 13:05:15;;;;;;;;;;;3.00;99.90;;;;;;4946337;28;20393;-83
2021/01/27 13:07:41;;;;;;;;;;;3.10;99.90;;;;;;4952057;28;19958;-84
2021/01/27 13:10:10;;;;;;;;;;;3.10;99.90;;;;;;4948335;28;19914;-84
2021/01/27 13:12:36;;;;;;;;;;;3.10;99.90;;;;;;4933936;28;20010;-84
2021/01/27 13:15:03;;;;;;;;;;;3.00;99.90;;;;;;4945188;28;19985;-84
2021/01/27 13:17:30;;;;;;;;;;;3.10;99.90;;;;;;4948921;28;19944;-83
2021/01/27 13:19:57;;;;;;;;;;;3.20;99.90;;;;;;4940791;28;20419;-83
2021/01/27 13:22:23;;;;;;;;;;;3.20;99.90;;;;;;4944344;28;21767;-84
2021/01/27 13:24:48;;;;;;;;;;;3.10;99.90;;;;;;4945357;28;19941;-83
2021/01/27 13:27:15;;;;;;;;;;;3.10;99.90;;;;;;4903422;29;21216;-84
2021/01/27 13:29:42;;;;;;;;;;;3.10;99.90;;;;;;4891240;29;19994;-84
2021/01/27 13:32:08;;;;;;;;;;;3.20;99.90;;;;;;4908066;29;20071;-84
2021/01/27 13:34:34;;;;;;;;;;;3.10;99.90;;;;;;4890873;29;20439;-84
2021/01/27 13:36:59;;;;;;;;;;;3.10;99.90;;;;;;4905372;29;19923;-84
2021/01/27 13:39:25;;;;;;;;;;;3.10;99.90;;;;;;4908103;29;19989;-83
2021/01/27 13:41:52;;;;;;;;;;;3.20;99.90;;;;;;4908113;29;19922;-84
2021/01/27 13:44:18;;;;;;;;;;;3.30;99.90;;;;;;4909592;29;19915;-84
2021/01/27 13:46:44;;;;;;;;;;;3.20;99.90;;;;;;4908210;29;19931;-83
2021/01/27 13:49:09;;;;;;;;;;;3.20;99.90;;;;;;4906446;29;19926;-83
2021/01/27 13:51:35;;;;;;;;;;;3.20;99.90;;;;;;4913164;29;20090;-83
2021/01/27 13:54:00;;;;;;;;;;;3.20;99.90;;;;;;4923450;29;20316;-84
2021/01/27 13:56:26;;;;;;;;;;;3.20;99.90;;;;;;4910744;29;19962;-84
2021/01/27 13:58:51;;;;;;;;;;;3.30;99.90;;;;;;4931878;28;19922;-81
2021/01/27 14:01:17;;;;;;;;;;;3.20;99.90;;;;;;4948387;28;19940;-82
2021/01/27 14:03:42;;;;;;;;;;;3.20;99.90;;;;;;4935112;28;20195;-81
2021/01/27 14:06:08;;;;;;;;;;;3.20;99.90;;;;;;4934459;28;19926;-82
2021/01/27 14:08:35;;;;;;;;;;;3.20;99.90;;;;;;4936552;28;19915;-83
2021/01/27 14:11:01;;;;;;;;;;;3.10;99.90;;;;;;4938785;28;19958;-81
2021/01/27 14:13:26;;;;;;;;;;;3.10;99.90;;;;;;4917629;29;19979;-81
2021/01/27 14:15:52;;;;;;;;;;;3.10;99.90;;;;;;4905327;29;19974;-82
2021/01/27 14:18:17;;;;;;;;;;;3.10;99.90;;;;;;4917137;29;20361;-82
2021/01/27 14:20:44;;;;;;;;;;;3.10;99.90;;;;;;4905104;29;19966;-82
2021/01/27 14:23:10;;;;;;;;;;;3.00;99.90;;;;;;4902455;29;19955;-82
2021/01/27 14:25:35;;;;;;;;;;;3.00;99.90;;;;;;4905693;29;19981;-82
2021/01/27 14:28:01;;;;;;;;;;;3.20;99.90;;;;;;4917475;29;19915;-83
2021/01/27 14:30:28;;;;;;;;;;;3.20;99.90;;;;;;4902890;29;19930;-82
2021/01/27 14:32:54;;;;;;;;;;;3.20;99.90;;;;;;4908151;29;20468;-83
2021/01/27 14:35:22;;;;;;;;;;;3.10;99.90;;;;;;4947481;28;20008;-83
2021/01/27 14:37:48;;;;;;;;;;;3.20;99.90;;;;;;4946113;28;19942;-82
2021/01/27 14:40:13;;;;;;;;;;;3.30;99.90;;;;;;4941906;28;19913;-82
2021/01/27 14:42:39;;;;;;;;;;;3.30;99.90;;;;;;4943237;28;19922;-83
2021/01/27 14:45:05;;;;;;;;;;;3.20;99.90;;;;;;4962085;28;19964;-83
2021/01/27 14:47:30;;;;;;;;;;;3.00;99.90;;;;;;4980296;28;20562;-83